Time;durP1;ratioP1;P1;durP2;ratioP2;P2;SDS_P1;SDS_P2;PMS_P1;PMS_P2;Temp;Humidity;BMP_temperature;BMP_pressure;BME280_temperature;BME280_humidity;BME280_pressure;Samples;Min_cycle;Max_cycle;Signal;HPM_P1;HPM_P2
2021/11/07 00:07:26;;;;;;;7.65;4.50;;;10.00;99.90;;;;;;5050775;28;20044;-71
2021/11/07 00:10:54;;;;;;;13.15;5.72;;;10.10;99.90;;;;;;5050549;28;20044;-72
2021/11/07 00:13:58;;;;;;;8.32;4.47;;;10.10;99.90;;;;;;5050622;28;20060;-71
2021/11/07 00:17:02;;;;;;;9.68;5.00;;;10.10;99.90;;;;;;5050767;28;20494;-71
2021/11/07 00:20:17;;;;;;;9.68;4.72;;;10.10;99.90;;;;;;5050143;28;20060;-71
2021/11/07 00:30:42;;;;;;;7.47;3.58;;;10.10;99.90;;;;;;5048858;28;20040;-71
2021/11/07 00:37:01;;;;;;;8.98;3.92;;;10.20;99.90;;;;;;5050423;28;20036;-71
2021/11/07 00:43:32;;;;;;;8.50;4.18;;;10.20;99.90;;;;;;5049866;28;20052;-71
2021/11/07 00:47:15;;;;;;;9.80;5.20;;;10.00;99.90;;;;;;5049935;28;20048;-71
2021/11/07 00:50:11;;;;;;;10.35;4.57;;;9.90;99.90;;;;;;5049683;28;20064;-72
2021/11/07 00:56:36;;;;;;;8.68;4.13;;;9.80;99.90;;;;;;5050355;28;20045;-72
2021/11/07 00:59:58;;;;;;;8.23;3.90;;;9.80;99.90;;;;;;5056626;28;20033;-71
2021/11/07 01:03:09;;;;;;;9.85;4.75;;;9.80;99.90;;;;;;5056259;28;20044;-72
2021/11/07 01:06:13;;;;;;;9.33;5.13;;;9.70;99.90;;;;;;5056498;28;20522;-72
2021/11/07 01:09:17;;;;;;;8.32;4.22;;;9.70;99.90;;;;;;5056742;28;20445;-72
2021/11/07 01:12:22;;;;;;;8.68;4.80;;;9.80;99.90;;;;;;5056719;28;20048;-70
2021/11/07 01:15:28;;;;;;;14.07;5.07;;;9.60;99.90;;;;;;5056381;28;20044;-71
2021/11/07 01:18:33;;;;;;;13.75;5.70;;;9.30;99.90;;;;;;5056244;28;20376;-71
2021/11/07 01:21:40;;;;;;;10.55;5.25;;;9.10;99.90;;;;;;5056323;28;20052;-72
2021/11/07 01:24:55;;;;;;;13.23;5.80;;;9.00;99.90;;;;;;5056161;28;20051;-71
2021/11/07 01:28:01;;;;;;;11.95;5.75;;;9.00;99.90;;;;;;5056356;28;20506;-70
2021/11/07 01:31:05;;;;;;;16.42;5.95;;;8.90;99.90;;;;;;5056103;28;20043;-72
2021/11/07 01:34:16;;;;;;;10.32;6.85;;;8.80;99.90;;;;;;5056227;28;20415;-71
2021/11/07 01:37:23;;;;;;;;;;;8.80;99.90;;;;;;5056601;28;20044;-71
2021/11/07 01:40:33;;;;;;;9.85;5.50;;;8.80;99.90;;;;;;5055987;28;19942;-72
2021/11/07 01:43:39;;;;;;;8.63;5.43;;;8.70;99.90;;;;;;5056246;28;20033;-72
2021/11/07 01:46:47;;;;;;;8.13;4.85;;;8.60;99.90;;;;;;5056089;28;20052;-72
2021/11/07 01:49:52;;;;;;;16.90;6.82;;;8.70;99.90;;;;;;5055890;28;20384;-71
2021/11/07 01:53:05;;;;;;;15.20;7.00;;;8.80;99.90;;;;;;5056174;28;20056;-71
2021/11/07 01:56:13;;;;;;;19.95;8.85;;;8.60;99.90;;;;;;5055719;28;20047;-71
2021/11/07 01:59:17;;;;;;;20.23;10.20;;;8.50;99.90;;;;;;5056088;28;20048;-70
2021/11/07 02:02:29;;;;;;;15.55;9.02;;;8.50;99.90;;;;;;5055660;28;20040;-71
2021/11/07 02:05:33;;;;;;;17.98;10.05;;;8.60;99.90;;;;;;5056234;28;20395;-71
2021/11/07 02:08:37;;;;;;;23.88;11.38;;;8.70;99.90;;;;;;5055270;28;20040;-70
2021/11/07 02:11:42;;;;;;;15.48;9.05;;;8.80;99.90;;;;;;5052547;28;20036;-70
2021/11/07 02:14:46;;;;;;;15.57;7.38;;;8.80;99.90;;;;;;5052991;28;20114;-71
2021/11/07 02:17:50;;;;;;;13.35;8.48;;;8.80;99.90;;;;;;5052822;28;20059;-68
2021/11/07 02:20:54;;;;;;;40.75;10.57;;;8.70;99.90;;;;;;5052814;28;20056;-70
2021/11/07 02:24:00;;;;;;;16.58;8.82;;;8.60;99.90;;;;;;5052886;28;20399;-70
2021/11/07 02:27:05;;;;;;;13.68;8.63;;;8.70;99.90;;;;;;5052787;28;20044;-69
2021/11/07 02:30:12;;;;;;;23.77;12.38;;;8.70;99.90;;;;;;5052629;28;20048;-69
2021/11/07 02:33:16;;;;;;;18.15;9.73;;;8.60;99.90;;;;;;5052473;28;20076;-69
2021/11/07 02:36:20;;;;;;;13.32;8.13;;;8.50;99.90;;;;;;5052533;28;20046;-70
2021/11/07 02:39:25;;;;;;;13.00;8.50;;;8.60;99.90;;;;;;5052286;28;20048;-70
2021/11/07 02:42:30;;;;;;;21.83;10.80;;;8.70;99.90;;;;;;5052165;28;20048;-70
2021/11/07 02:45:34;;;;;;;20.75;12.02;;;8.80;99.90;;;;;;5052416;28;20048;-70
2021/11/07 02:48:38;;;;;;;15.88;9.77;;;8.80;99.90;;;;;;5052038;28;20494;-70
2021/11/07 02:51:42;;;;;;;17.50;9.65;;;8.90;99.90;;;;;;5052162;28;20054;-70
2021/11/07 02:54:46;;;;;;;20.08;9.57;;;8.90;99.90;;;;;;5052009;28;20423;-69
2021/11/07 02:57:58;;;;;;;12.15;8.60;;;8.90;99.90;;;;;;5052078;28;20119;-70
2021/11/07 03:01:03;;;;;;;70.68;12.90;;;8.90;99.90;;;;;;5052079;28;20083;-69
2021/11/07 03:04:08;;;;;;;96.45;15.43;;;8.80;99.90;;;;;;5052226;28;20044;-69
2021/11/07 03:07:13;;;;;;;21.77;13.50;;;8.70;99.90;;;;;;5052047;28;20051;-69
2021/11/07 03:10:17;;;;;;;19.83;11.20;;;8.80;99.90;;;;;;5051895;28;20044;-69
2021/11/07 03:13:21;;;;;;;18.25;10.60;;;8.90;99.90;;;;;;5052410;28;20051;-69
2021/11/07 03:16:26;;;;;;;19.92;10.90;;;8.90;99.90;;;;;;5052002;28;20498;-69
2021/11/07 03:19:31;;;;;;;13.80;8.45;;;8.90;99.90;;;;;;5051468;28;20048;-70
2021/11/07 03:22:36;;;;;;;11.93;5.88;;;9.00;99.90;;;;;;5050824;28;20055;-69
2021/11/07 03:25:48;;;;;;;8.50;4.53;;;9.00;99.90;;;;;;5051591;28;20052;-70
2021/11/07 03:28:57;;;;;;;6.40;4.00;;;9.00;99.90;;;;;;5050943;28;20037;-69
2021/11/07 03:35:07;;;;;;;10.45;6.40;;;9.30;99.90;;;;;;5051391;28;20499;-69
2021/11/07 03:38:11;;;;;;;9.07;6.00;;;9.30;99.90;;;;;;5051313;28;20076;-70
2021/11/07 03:41:16;;;;;;;9.02;5.60;;;9.30;99.90;;;;;;5051279;28;20052;-71
2021/11/07 03:44:22;;;;;;;10.88;5.70;;;9.30;99.90;;;;;;5051078;28;20052;-69
2021/11/07 03:47:26;;;;;;;9.63;6.53;;;9.30;99.90;;;;;;5051152;28;20044;-69
2021/11/07 03:50:31;;;;;;;17.63;10.73;;;9.00;99.90;;;;;;5051100;28;20493;-69
2021/11/07 03:53:35;;;;;;;16.15;10.95;;;8.90;99.90;;;;;;5051259;28;20502;-70
2021/11/07 03:56:39;;;;;;;13.90;10.13;;;8.90;99.90;;;;;;5051064;28;20048;-69
2021/11/07 03:59:45;;;;;;;172.00;23.27;;;8.80;99.90;;;;;;5050415;28;20044;-70
2021/11/07 04:02:51;;;;;;;800.53;62.08;;;8.80;99.90;;;;;;5051109;28;20048;-70
2021/11/07 04:05:55;;;;;;;93.93;19.95;;;8.80;99.90;;;;;;5050812;28;20055;-70
2021/11/07 04:09:00;;;;;;;53.08;16.60;;;8.80;99.90;;;;;;5050832;28;20036;-69
2021/11/07 04:12:04;;;;;;;29.58;15.32;;;8.90;99.90;;;;;;5050812;28;20052;-70
2021/11/07 04:15:10;;;;;;;24.63;14.25;;;9.00;99.90;;;;;;5050647;28;20064;-70
2021/11/07 04:18:14;;;;;;;21.95;12.65;;;9.00;99.90;;;;;;5050515;28;20060;-70
2021/11/07 04:21:19;;;;;;;23.50;15.20;;;9.00;99.90;;;;;;5050755;28;20392;-70
2021/11/07 04:24:23;;;;;;;18.00;11.85;;;9.00;99.90;;;;;;5049608;28;20048;-69
2021/11/07 04:27:27;;;;;;;326.90;28.45;;;8.90;99.90;;;;;;5050434;28;20044;-70
2021/11/07 04:30:31;;;;;;;30.77;15.30;;;8.70;99.90;;;;;;5050445;28;20048;-70
2021/11/07 04:33:36;;;;;;;18.67;12.35;;;8.70;99.90;;;;;;5049874;28;20494;-70
2021/11/07 04:36:39;;;;;;;24.10;13.82;;;8.70;99.90;;;;;;5050281;28;20047;-70
2021/11/07 04:39:44;;;;;;;304.65;25.70;;;8.70;99.90;;;;;;5050389;28;20044;-70
2021/11/07 04:42:48;;;;;;;53.60;16.38;;;8.70;99.90;;;;;;5049854;28;20418;-69
2021/11/07 04:45:52;;;;;;;86.05;16.73;;;8.80;99.90;;;;;;5050370;28;20048;-70
2021/11/07 04:48:56;;;;;;;114.22;21.45;;;8.80;99.90;;;;;;5050303;28;20044;-70
2021/11/07 04:52:00;;;;;;;52.40;16.92;;;8.90;99.90;;;;;;5050494;28;20044;-70
2021/11/07 04:55:06;;;;;;;539.17;40.50;;;9.00;99.90;;;;;;5050432;28;20044;-70
2021/11/07 04:58:12;;;;;;;30.23;15.70;;;8.80;99.90;;;;;;5050209;28;20048;-70
2021/11/07 05:01:16;;;;;;;32.92;16.75;;;8.90;99.90;;;;;;5050620;28;20060;-70
2021/11/07 05:04:20;;;;;;;23.55;14.25;;;9.00;99.90;;;;;;5049945;28;20064;-70
2021/11/07 05:07:24;;;;;;;21.33;13.48;;;9.00;99.90;;;;;;5049419;28;20044;-70
2021/11/07 05:10:28;;;;;;;21.52;12.88;;;9.10;99.90;;;;;;5050217;28;20294;-70
2021/11/07 05:13:32;;;;;;;16.20;10.65;;;9.10;99.90;;;;;;5050134;28;20545;-70
2021/11/07 05:16:37;;;;;;;17.60;10.10;;;9.10;99.90;;;;;;5050197;28;20043;-70
2021/11/07 05:19:41;;;;;;;16.42;9.88;;;9.20;99.90;;;;;;5050015;28;20048;-70
2021/11/07 05:22:45;;;;;;;17.38;9.98;;;9.10;99.90;;;;;;5049925;28;20040;-69
2021/11/07 05:25:49;;;;;;;13.60;8.68;;;9.10;99.90;;;;;;5050137;28;20048;-70
2021/11/07 05:28:54;;;;;;;14.40;8.48;;;9.10;99.90;;;;;;5049549;28;20052;-70
2021/11/07 05:32:00;;;;;;;13.60;8.75;;;9.00;99.90;;;;;;5049383;28;20052;-69
2021/11/07 05:35:05;;;;;;;12.85;7.97;;;9.00;99.90;;;;;;5050300;28;20044;-70
2021/11/07 05:38:10;;;;;;;10.80;7.18;;;8.90;99.90;;;;;;5049455;28;20415;-70
2021/11/07 05:41:14;;;;;;;14.10;7.95;;;8.90;99.90;;;;;;5049664;28;20056;-70
2021/11/07 05:44:18;;;;;;;10.25;7.07;;;8.90;99.90;;;;;;5049857;28;20048;-70
2021/11/07 05:47:23;;;;;;;11.20;7.43;;;8.80;99.90;;;;;;5052782;28;20094;-70
2021/11/07 05:50:28;;;;;;;11.75;8.07;;;8.80;99.90;;;;;;5053342;28;20052;-70
2021/11/07 05:53:32;;;;;;;16.65;10.75;;;8.80;99.90;;;;;;5053349;28;20060;-70
2021/11/07 05:56:36;;;;;;;14.48;10.95;;;8.70;99.90;;;;;;5053757;28;20040;-70
2021/11/07 05:59:40;;;;;;;15.93;11.57;;;8.80;99.90;;;;;;5053092;28;20059;-70
2021/11/07 06:02:46;;;;;;;13.00;9.25;;;8.80;99.90;;;;;;5053260;28;20388;-70
2021/11/07 06:05:51;;;;;;;11.80;7.47;;;8.80;99.90;;;;;;5053551;28;20048;-70
2021/11/07 06:08:55;;;;;;;14.60;10.43;;;8.90;99.90;;;;;;5053027;28;20048;-70
2021/11/07 06:12:00;;;;;;;12.70;10.00;;;8.90;99.90;;;;;;5052842;28;20048;-70
2021/11/07 06:15:05;;;;;;;14.75;10.10;;;8.80;99.90;;;;;;5053045;28;20538;-70
2021/11/07 06:18:09;;;;;;;15.70;10.20;;;8.80;99.90;;;;;;5052591;28;20056;-70
2021/11/07 06:21:13;;;;;;;12.45;8.73;;;8.80;99.90;;;;;;5053376;28;20056;-70
2021/11/07 06:24:24;;;;;;;12.10;8.77;;;8.80;99.90;;;;;;5052772;28;20052;-70
2021/11/07 06:27:30;;;;;;;11.73;7.53;;;8.80;99.90;;;;;;5053094;28;20056;-70
2021/11/07 06:30:35;;;;;;;15.77;8.38;;;8.90;99.90;;;;;;5052399;28;20036;-70
2021/11/07 06:33:39;;;;;;;12.43;9.43;;;9.00;99.90;;;;;;5052604;28;20522;-70
2021/11/07 06:36:44;;;;;;;14.40;9.75;;;9.10;99.90;;;;;;5053023;28;20048;-70
2021/11/07 06:39:48;;;;;;;13.68;8.77;;;9.30;99.90;;;;;;5052333;28;20384;-70
2021/11/07 06:42:52;;;;;;;13.10;7.97;;;9.40;99.90;;;;;;5052540;28;20048;-70
2021/11/07 06:45:56;;;;;;;7.97;5.63;;;9.60;99.90;;;;;;5051565;28;20502;-70
2021/11/07 06:49:00;;;;;;;7.93;5.32;;;9.60;99.90;;;;;;5052355;28;20490;-70
2021/11/07 06:52:04;;;;;;;7.93;5.45;;;9.90;99.90;;;;;;5052137;28;20395;-70
2021/11/07 06:55:09;;;;;;;7.35;5.55;;;10.10;99.90;;;;;;5051951;28;20044;-70
2021/11/07 06:58:13;;;;;;;5.68;4.32;;;10.70;99.90;;;;;;5052065;28;20048;-70
2021/11/07 07:01:18;;;;;;;5.93;4.10;;;11.00;99.90;;;;;;5052002;28;20052;-70
2021/11/07 07:04:22;;;;;;;6.00;3.33;;;11.20;99.90;;;;;;5051933;28;20395;-70
2021/11/07 07:07:29;;;;;;;3.95;3.05;;;11.40;99.90;;;;;;5052231;28;20052;-70
2021/11/07 07:10:36;;;;;;;3.65;2.50;;;11.30;99.90;;;;;;5051928;28;20036;-70
2021/11/07 07:14:16;;;;;;;7.05;2.10;;;12.30;99.90;;;;;;5051895;28;20036;-70
2021/11/07 07:17:27;;;;;;;5.32;2.28;;;13.90;99.90;;;;;;5051972;28;20040;-70
2021/11/07 07:27:20;;;;;;;2.75;1.55;;;18.50;99.90;;;;;;5051600;28;20048;-71
2021/11/07 07:30:41;;;;;;;2.50;1.60;;;19.20;99.90;;;;;;5051759;28;20103;-71
2021/11/07 07:36:53;;;;;;;3.00;1.60;;;20.90;99.90;;;;;;5051180;28;20048;-71
2021/11/07 07:39:58;;;;;;;4.00;1.20;;;21.30;99.90;;;;;;5051305;28;20052;-71
2021/11/07 07:43:02;;;;;;;2.15;1.10;;;21.80;99.90;;;;;;5051200;28;20048;-71
2021/11/07 07:46:11;;;;;;;2.03;1.40;;;22.60;99.90;;;;;;5051464;28;20419;-71
2021/11/07 07:49:17;;;;;;;2.17;1.38;;;22.60;99.90;;;;;;5051625;28;20491;-71
2021/11/07 07:52:25;;;;;;;2.45;1.55;;;22.60;99.90;;;;;;5051281;28;20412;-71
2021/11/07 07:55:29;;;;;;;2.17;1.38;;;23.00;99.90;;;;;;5051148;28;20502;-71
2021/11/07 07:58:34;;;;;;;2.15;1.50;;;23.80;99.90;;;;;;5050739;28;20391;-71
2021/11/07 08:01:38;;;;;;;1.80;1.60;;;22.40;99.90;;;;;;5050795;28;20526;-71
2021/11/07 08:04:42;;;;;;;3.13;1.52;;;21.10;99.90;;;;;;5051019;28;20408;-71
2021/11/07 08:07:46;;;;;;;3.55;1.52;;;20.10;99.90;;;;;;5050251;28;20048;-71
2021/11/07 08:10:51;;;;;;;3.40;1.17;;;20.30;99.90;;;;;;5050128;28;20052;-71
2021/11/07 08:13:54;;;;;;;2.47;1.17;;;20.70;99.90;;;;;;5050612;28;20047;-70
2021/11/07 08:16:59;;;;;;;2.55;1.10;;;20.70;99.90;;;;;;5050430;28;20036;-71
2021/11/07 08:20:06;;;;;;;2.28;1.45;;;22.20;99.90;;;;;;5050555;28;20051;-71
2021/11/07 08:23:10;;;;;;;3.33;1.00;;;23.30;98.20;;;;;;5050340;28;20048;-71
2021/11/07 08:26:16;;;;;;;1.52;0.90;;;22.90;99.90;;;;;;5050224;28;20052;-71
2021/11/07 08:29:21;;;;;;;2.30;1.10;;;23.30;99.90;;;;;;5050359;28;20052;-71
2021/11/07 08:32:26;;;;;;;1.33;0.77;;;23.50;98.40;;;;;;5050409;28;20044;-71
2021/11/07 08:35:30;;;;;;;1.17;0.98;;;23.90;96.60;;;;;;5050124;28;20044;-71
2021/11/07 08:39:22;;;;;;;1.92;1.13;;;23.30;98.00;;;;;;5050118;28;20043;-71
2021/11/07 08:42:02;;;;;;;1.52;1.10;;;25.60;97.60;;;;;;5052092;28;20494;-71
2021/11/07 09:05:09;;;;;;;3.13;1.83;;;21.70;99.00;;;;;;5050030;28;20068;-71
2021/11/07 09:08:16;;;;;;;2.10;1.90;;;22.00;98.80;;;;;;5050150;28;20056;-71
2021/11/07 09:11:21;;;;;;;3.17;1.83;;;19.60;99.90;;;;;;5050385;28;20044;-71
2021/11/07 09:14:34;;;;;;;3.50;2.40;;;22.30;99.90;;;;;;5050283;28;20056;-71
2021/11/07 09:17:38;;;;;;;3.30;1.70;;;22.90;98.00;;;;;;5049283;28;20052;-71
2021/11/07 09:23:53;;;;;;;2.60;1.85;;;20.00;99.90;;;;;;5053981;28;20073;-71
2021/11/07 09:26:57;;;;;;;6.68;2.40;;;20.40;99.90;;;;;;5053893;28;20048;-71
2021/11/07 09:36:33;;;;;;;4.55;3.08;;;21.40;99.90;;;;;;5053384;28;20060;-71
2021/11/07 09:39:49;;;;;;;5.00;3.15;;;23.20;98.30;;;;;;5053060;28;20499;-71
2021/11/07 09:43:09;;;;;;;9.80;4.65;;;22.90;97.70;;;;;;5053821;28;20048;-72
2021/11/07 09:49:43;;;;;;;6.63;3.83;;;20.60;99.90;;;;;;5053645;28;20036;-71
2021/11/07 09:52:49;;;;;;;4.78;3.33;;;19.60;99.90;;;;;;5052290;28;20040;-71
2021/11/07 09:55:54;;;;;;;6.43;3.25;;;19.30;99.90;;;;;;5053072;28;20048;-71
2021/11/07 09:58:59;;;;;;;9.35;3.75;;;19.40;99.90;;;;;;5053226;28;20505;-71
2021/11/07 10:02:04;;;;;;;4.68;3.42;;;19.20;99.90;;;;;;5053158;28;20044;-71
2021/11/07 10:05:10;;;;;;;4.45;3.20;;;19.20;99.90;;;;;;5053128;28;20052;-71
2021/11/07 10:08:16;;;;;;;6.75;4.57;;;19.00;99.90;;;;;;5052984;28;20047;-71
2021/11/07 10:11:20;;;;;;;5.07;3.80;;;18.80;99.90;;;;;;5052768;28;20044;-71
2021/11/07 10:14:24;;;;;;;7.07;3.53;;;18.60;99.90;;;;;;5052977;28;20048;-71
2021/11/07 10:18:06;;;;;;;9.15;3.60;;;18.30;99.90;;;;;;5052787;28;20605;-71
2021/11/07 10:21:26;;;;;;;6.45;3.30;;;18.20;99.90;;;;;;5052833;28;20047;-71
2021/11/07 10:24:35;;;;;;;6.45;3.55;;;18.50;99.90;;;;;;5052902;28;20048;-71
2021/11/07 10:27:40;;;;;;;5.50;3.50;;;18.70;99.90;;;;;;5052629;28;20055;-71
2021/11/07 10:30:48;;;;;;;4.97;3.17;;;18.90;99.90;;;;;;5051684;28;20060;-71
2021/11/07 10:41:25;;;;;;;;;;;17.50;99.90;;;;;;5051193;28;20136;-71
2021/11/07 10:54:42;;;;;;;5.05;2.97;;;17.60;99.90;;;;;;5049643;28;20052;-71
2021/11/07 10:57:49;;;;;;;5.97;2.88;;;18.40;99.90;;;;;;5052126;28;20060;-71
2021/11/07 11:00:55;;;;;;;3.63;2.65;;;18.80;99.90;;;;;;5052051;28;20403;-71
2021/11/07 11:04:00;;;;;;;4.85;3.15;;;19.10;99.90;;;;;;5051701;28;20042;-72
2021/11/07 11:07:11;;;;;;;4.18;2.90;;;19.00;99.90;;;;;;5051876;28;20406;-71
2021/11/07 11:10:21;;;;;;;5.68;3.20;;;19.00;99.90;;;;;;5051664;28;20048;-72
2021/11/07 11:13:37;;;;;;;3.83;2.60;;;18.90;99.90;;;;;;5051756;28;20056;-72
2021/11/07 11:17:27;;;;;;;9.60;3.72;;;18.40;99.90;;;;;;5051848;28;20047;-71
2021/11/07 11:20:52;;;;;;;4.75;3.40;;;16.70;99.90;;;;;;5051438;28;20256;-71
2021/11/07 11:33:55;;;;;;;7.03;4.05;;;15.20;99.90;;;;;;5051649;28;20051;-71
2021/11/07 11:37:15;;;;;;;6.90;4.20;;;15.30;99.90;;;;;;5051653;28;20040;-71
2021/11/07 11:40:34;;;;;;;8.80;4.75;;;15.10;99.90;;;;;;5051277;28;20040;-71
2021/11/07 11:43:44;;;;;;;6.68;4.28;;;15.40;99.90;;;;;;5051250;28;20036;-71
2021/11/07 11:54:53;;;;;;;6.35;3.20;;;16.30;99.90;;;;;;5051044;28;20044;-71
2021/11/07 11:58:10;;;;;;;7.57;3.40;;;17.50;99.90;;;;;;5051334;28;20036;-71
2021/11/07 12:01:23;;;;;;;10.65;5.60;;;18.50;99.90;;;;;;5051701;28;20482;-71
2021/11/07 12:04:37;;;;;;;8.65;5.43;;;19.40;99.90;;;;;;5051111;28;20490;-71
2021/11/07 12:07:57;;;;;;;9.20;5.65;;;21.00;99.90;;;;;;5050747;28;20048;-71
2021/11/07 12:11:27;;;;;;;11.27;5.15;;;22.70;99.90;;;;;;5038670;28;20044;-72
2021/11/07 12:15:12;;;;;;;6.55;4.47;;;25.60;99.90;;;;;;5050461;28;20120;-72
2021/11/07 12:18:17;;;;;;;10.02;4.70;;;26.50;99.90;;;;;;5050464;28;20075;-72
2021/11/07 12:21:23;;;;;;;5.93;3.88;;;27.80;95.10;;;;;;5050677;28;20075;-72
2021/11/07 12:24:47;;;;;;;5.57;3.42;;;29.40;94.10;;;;;;5049611;28;20044;-73
2021/11/07 12:27:54;;;;;;;6.15;3.25;;;28.90;91.90;;;;;;5050593;28;20040;-73
2021/11/07 12:31:05;;;;;;;6.10;3.38;;;29.50;91.70;;;;;;5050616;28;20347;-72
2021/11/07 12:34:18;;;;;;;;;;;28.30;91.90;;;;;;5050535;28;20044;-72
2021/11/07 12:41:14;;;;;;;6.10;2.85;;;25.40;92.30;;;;;;5050281;28;20048;-73
2021/11/07 12:44:26;;;;;;;5.80;3.47;;;26.30;92.90;;;;;;5049392;28;20044;-72
2021/11/07 12:47:48;;;;;;;4.35;2.70;;;26.20;93.70;;;;;;5050217;28;20052;-72
2021/11/07 12:50:57;;;;;;;3.00;2.40;;;24.00;95.10;;;;;;5050090;28;20290;-72
2021/11/07 12:54:09;;;;;;;3.42;2.30;;;23.80;96.40;;;;;;5049664;28;20040;-72
2021/11/07 12:57:22;;;;;;;3.40;2.40;;;23.30;95.70;;;;;;5050196;28;20502;-72
2021/11/07 13:00:27;;;;;;;3.42;2.05;;;24.20;95.90;;;;;;5049654;28;20419;-72
2021/11/07 13:03:33;;;;;;;3.92;2.08;;;25.30;94.30;;;;;;5050187;28;20395;-72
2021/11/07 13:06:37;;;;;;;6.28;3.08;;;23.30;95.70;;;;;;5049618;28;20048;-72
2021/11/07 13:09:47;;;;;;;7.38;3.10;;;21.90;97.00;;;;;;5049428;28;20044;-72
2021/11/07 13:12:56;;;;;;;4.20;2.97;;;21.50;99.50;;;;;;5049904;28;20048;-72
2021/11/07 13:16:34;;;;;;;4.15;2.90;;;21.40;99.30;;;;;;5049986;28;20044;-72
2021/11/07 13:23:23;;;;;;;4.13;2.67;;;25.10;94.90;;;;;;5049844;28;20076;-72
2021/11/07 13:32:51;;;;;;;4.10;2.60;;;24.80;95.60;;;;;;5049765;28;20040;-73
2021/11/07 13:35:58;;;;;;;6.03;2.42;;;24.40;95.20;;;;;;5049872;28;20048;-72
2021/11/07 13:39:04;;;;;;;3.22;2.40;;;24.20;94.50;;;;;;5049829;28;20048;-72
2021/11/07 13:42:15;;;;;;;2.95;2.17;;;23.70;95.70;;;;;;5049944;28;20419;-72
2021/11/07 13:45:28;;;;;;;5.10;1.85;;;25.10;94.50;;;;;;5049574;28;20052;-72
2021/11/07 13:48:34;;;;;;;2.63;1.80;;;26.50;93.00;;;;;;5049109;28;20068;-73
2021/11/07 13:51:54;;;;;;;4.70;2.20;;;25.60;92.20;;;;;;5049410;28;20406;-72
2021/11/07 13:55:00;;;;;;;2.65;2.03;;;24.10;93.50;;;;;;5049850;28;20517;-73
2021/11/07 13:58:17;;;;;;;3.97;2.17;;;24.70;94.80;;;;;;5049829;28;20771;-72
2021/11/07 14:01:22;;;;;;;5.38;2.10;;;24.50;92.80;;;;;;5049296;28;20044;-72
2021/11/07 14:04:48;;;;;;;2.33;1.70;;;24.90;93.50;;;;;;5049598;28;20055;-72
2021/11/07 14:08:03;;;;;;;4.55;1.85;;;25.50;92.90;;;;;;5053164;28;20091;-72
2021/11/07 14:11:08;;;;;;;4.07;1.60;;;25.90;92.20;;;;;;5053190;28;20048;-72
2021/11/07 14:14:13;;;;;;;3.88;1.70;;;26.40;91.80;;;;;;5053159;28;20052;-73
2021/11/07 14:17:25;;;;;;;4.70;1.27;;;27.10;91.10;;;;;;5053131;28;20044;-72
2021/11/07 14:20:40;;;;;;;;;;;27.30;90.60;;;;;;5053559;28;20112;-72
2021/11/07 14:23:49;;;;;;;2.33;1.60;;;27.20;90.50;;;;;;5052906;28;19963;-73
2021/11/07 14:27:03;;;;;;;3.78;1.58;;;26.50;91.50;;;;;;5053028;28;20036;-72
2021/11/07 14:30:15;;;;;;;3.95;1.83;;;25.00;92.30;;;;;;5052373;28;20048;-73
2021/11/07 14:33:35;;;;;;;3.47;1.60;;;25.10;92.90;;;;;;5052665;28;20060;-72
2021/11/07 14:36:52;;;;;;;4.25;1.63;;;25.20;93.00;;;;;;5052630;28;20044;-72
2021/11/07 14:40:07;;;;;;;6.85;1.60;;;25.30;92.80;;;;;;5052397;28;20048;-72
2021/11/07 14:47:07;;;;;;;5.32;1.88;;;24.00;93.70;;;;;;5052489;28;20060;-72
2021/11/07 14:50:29;;;;;;;3.80;1.88;;;24.20;94.30;;;;;;5052445;28;20043;-72
2021/11/07 14:54:44;;;;;;;3.85;1.95;;;24.00;94.60;;;;;;5052292;28;20097;-72
2021/11/07 15:01:21;;;;;;;6.07;2.13;;;21.50;96.20;;;;;;5050711;28;20048;-72
2021/11/07 15:07:14;;;;;;;3.92;2.10;;;21.70;97.50;;;;;;5052068;28;20052;-72
2021/11/07 15:22:58;;;;;;;3.72;1.75;;;20.20;99.90;;;;;;5051834;28;20040;-72
2021/11/07 15:26:14;;;;;;;4.78;2.00;;;19.80;99.90;;;;;;5050699;28;20035;-72
2021/11/07 15:29:22;;;;;;;8.20;1.90;;;19.40;99.90;;;;;;5050389;28;20048;-72
2021/11/07 15:32:32;;;;;;;3.35;1.58;;;19.00;99.90;;;;;;5051763;28;20056;-72
2021/11/07 15:35:43;;;;;;;4.97;1.90;;;18.50;99.90;;;;;;5051253;28;20044;-72
2021/11/07 15:39:04;;;;;;;2.70;1.98;;;18.10;99.90;;;;;;5051314;28;20494;-72
2021/11/07 15:42:10;;;;;;;3.65;1.98;;;17.60;99.90;;;;;;5051320;28;20040;-72
2021/11/07 15:45:18;;;;;;;6.05;2.55;;;17.20;99.90;;;;;;5051370;28;20482;-72
2021/11/07 15:48:27;;;;;;;7.05;2.42;;;16.70;99.90;;;;;;5050494;28;20128;-72
2021/11/07 15:51:43;;;;;;;3.95;2.60;;;16.30;99.90;;;;;;5050378;28;20044;-71
2021/11/07 15:54:55;;;;;;;3.80;2.67;;;16.00;99.90;;;;;;5051414;28;20036;-71
2021/11/07 16:01:32;;;;;;;6.00;2.65;;;15.60;99.90;;;;;;5050742;28;20039;-71
2021/11/07 16:04:46;;;;;;;8.10;2.78;;;15.50;99.90;;;;;;5051219;28;20052;-72
2021/11/07 16:08:07;;;;;;;9.82;3.08;;;15.30;99.90;;;;;;5050996;28;20044;-71
2021/11/07 16:11:22;;;;;;;12.45;3.85;;;15.20;99.90;;;;;;5050569;28;20044;-71
2021/11/07 16:14:51;;;;;;;15.45;10.13;;;15.00;99.90;;;;;;5050616;28;20044;-71
2021/11/07 16:17:55;;;;;;;12.35;6.45;;;14.80;99.90;;;;;;5050479;28;20062;-73
2021/11/07 16:20:59;;;;;;;23.35;7.53;;;14.70;99.90;;;;;;5050943;28;20398;-72
2021/11/07 16:24:04;;;;;;;19.45;12.20;;;14.50;99.90;;;;;;5050684;28;20525;-72
2021/11/07 16:27:11;;;;;;;25.05;15.88;;;14.40;99.90;;;;;;5049658;28;20044;-72
2021/11/07 16:30:17;;;;;;;21.45;13.23;;;14.30;99.90;;;;;;5049607;28;20478;-72
2021/11/07 16:33:23;;;;;;;22.60;13.80;;;14.30;99.90;;;;;;5050384;28;20060;-72
2021/11/07 16:36:34;;;;;;;18.58;12.57;;;14.20;99.90;;;;;;5050274;28;20052;-72
2021/11/07 16:39:43;;;;;;;25.10;15.32;;;14.10;99.90;;;;;;5050107;28;20036;-72
2021/11/07 16:42:47;;;;;;;26.45;15.77;;;14.00;99.90;;;;;;5050095;28;20391;-72
2021/11/07 16:45:53;;;;;;;24.10;14.05;;;13.90;99.90;;;;;;5050504;28;20040;-71
2021/11/07 16:49:00;;;;;;;25.20;14.40;;;13.80;99.90;;;;;;5049800;28;20048;-71
2021/11/07 16:52:21;;;;;;;21.27;13.25;;;13.80;99.90;;;;;;5050313;28;20049;-71
2021/11/07 16:55:34;;;;;;;29.23;17.00;;;13.70;99.90;;;;;;5049785;28;20040;-71
2021/11/07 16:58:57;;;;;;;23.75;16.08;;;13.60;99.90;;;;;;5049719;28;20048;-71
2021/11/07 17:02:23;;;;;;;13.75;9.55;;;13.60;99.90;;;;;;5050140;28;20040;-71
2021/11/07 17:05:37;;;;;;;20.83;12.30;;;13.60;99.90;;;;;;5050450;28;20064;-71
2021/11/07 17:08:50;;;;;;;18.20;12.70;;;13.50;99.90;;;;;;5048821;28;20108;-72
2021/11/07 17:11:58;;;;;;;22.33;12.30;;;13.50;99.90;;;;;;5051013;28;20036;-72
2021/11/07 17:15:12;;;;;;;22.33;13.23;;;13.40;99.90;;;;;;5050507;28;20056;-71
2021/11/07 17:18:29;;;;;;;10.25;7.10;;;13.20;99.90;;;;;;5049511;28;20462;-71
2021/11/07 17:21:53;;;;;;;13.40;8.77;;;13.10;99.90;;;;;;5050186;28;20044;-71
2021/11/07 17:25:03;;;;;;;24.85;14.70;;;13.10;99.90;;;;;;5050101;28;20495;-72
2021/11/07 17:31:24;;;;;;;11.70;8.15;;;13.10;99.90;;;;;;5050032;28;20381;-71
2021/11/07 17:34:44;;;;;;;16.97;11.63;;;13.00;99.90;;;;;;5049703;28;20036;-72
2021/11/07 17:54:38;;;;;;;16.02;10.00;;;12.60;99.90;;;;;;5053673;28;19909;-71
2021/11/07 17:57:42;;;;;;;15.38;8.05;;;12.60;99.90;;;;;;5052732;28;20048;-71
2021/11/07 18:00:46;;;;;;;14.07;6.90;;;12.60;99.90;;;;;;5053139;28;20401;-71
2021/11/07 18:03:52;;;;;;;14.60;8.10;;;12.60;99.90;;;;;;5053066;28;20060;-71
2021/11/07 18:07:21;;;;;;;16.05;7.35;;;12.60;99.90;;;;;;5053209;28;20387;-71
2021/11/07 18:10:21;;;;;;;16.38;10.38;;;12.70;99.90;;;;;;5051816;28;20052;-71
2021/11/07 18:13:35;;;;;;;12.02;7.18;;;12.70;99.90;;;;;;5052996;28;20794;-71
2021/11/07 18:16:39;;;;;;;13.82;7.85;;;12.80;99.90;;;;;;5052965;28;20407;-72
2021/11/07 18:19:43;;;;;;;13.75;8.90;;;12.80;99.90;;;;;;5052666;28;20052;-71
2021/11/07 18:22:53;;;;;;;15.80;9.80;;;12.80;99.90;;;;;;5053016;28;20040;-72
2021/11/07 18:26:02;;;;;;;11.45;7.75;;;12.80;99.90;;;;;;5052996;28;20048;-72
2021/11/07 18:29:06;;;;;;;10.95;7.45;;;12.90;99.90;;;;;;5052717;28;20120;-72
2021/11/07 18:32:11;;;;;;;12.00;8.38;;;12.90;99.90;;;;;;5052859;28;20052;-72
2021/11/07 18:35:15;;;;;;;15.82;8.70;;;13.00;99.90;;;;;;5052551;28;20072;-71
2021/11/07 18:38:22;;;;;;;14.77;9.00;;;13.10;99.90;;;;;;5052554;28;20107;-72
2021/11/07 18:41:25;;;;;;;18.17;11.65;;;13.10;99.90;;;;;;5052434;28;20387;-72
2021/11/07 18:44:29;;;;;;;21.35;10.35;;;13.20;99.90;;;;;;5052563;28;20044;-72
2021/11/07 18:47:34;;;;;;;31.25;19.10;;;13.00;99.90;;;;;;5052118;28;20408;-71
2021/11/07 18:50:38;;;;;;;27.08;14.50;;;13.00;99.90;;;;;;5052343;28;20052;-71
2021/11/07 18:53:42;;;;;;;28.02;16.45;;;13.00;99.90;;;;;;5052127;28;20389;-72
2021/11/07 18:56:47;;;;;;;19.42;12.98;;;12.90;99.90;;;;;;5051899;28;20059;-72
2021/11/07 18:59:51;;;;;;;16.13;11.30;;;12.80;99.90;;;;;;5039532;28;20044;-71
2021/11/07 19:02:55;;;;;;;26.77;17.23;;;12.80;99.90;;;;;;5052120;28;20044;-72